Time;durP1;ratioP1;P1;durP2;ratioP2;P2;SDS_P1;SDS_P2;PMS_P1;PMS_P2;Temp;Humidity;BMP_temperature;BMP_pressure;BME280_temperature;BME280_humidity;BME280_pressure;Samples;Min_cycle;Max_cycle;Signal;HPM_P1;HPM_P2
2024/04/05 00:01:50;;;;;;;6.88;3.33;;;;;;;7.31;80.51;93365.50;5089372;28;20048;-72
2024/04/05 00:04:16;;;;;;;7.60;3.35;;;;;;;7.46;80.45;93390.97;5093244;28;20032;-72
2024/04/05 00:06:42;;;;;;;9.02;4.35;;;;;;;7.54;80.40;93405.38;5090213;28;20032;-72
2024/04/05 00:09:08;;;;;;;8.57;4.00;;;;;;;7.37;79.86;93369.88;5100251;28;20425;-72
2024/04/05 00:11:33;;;;;;;8.68;5.20;;;;;;;7.37;80.79;93375.00;5108672;28;20130;-72
2024/04/05 00:13:59;;;;;;;9.02;4.45;;;;;;;7.41;80.62;93386.41;5105738;28;20114;-72
2024/04/05 00:16:24;;;;;;;8.10;4.13;;;;;;;7.20;80.80;93342.03;5089821;28;20039;-72
2024/04/05 00:18:50;;;;;;;8.82;4.05;;;;;;;6.99;81.05;93326.75;5091422;28;20031;-71
2024/04/05 00:21:16;;;;;;;6.68;4.20;;;;;;;7.20;80.72;93364.22;5087813;28;20039;-72
2024/04/05 00:23:41;;;;;;;;;;;;;;;7.48;80.79;93394.94;5090003;28;20040;-71
2024/04/05 00:26:09;;;;;;;6.82;3.65;;;;;;;7.27;82.31;93377.06;5089715;28;20574;-71
2024/04/05 00:28:36;;;;;;;7.57;4.65;;;;;;;7.13;83.33;93378.72;5091454;28;20023;-71
2024/04/05 00:31:04;;;;;;;8.95;5.40;;;;;;;6.95;84.50;93354.41;5090935;28;20081;-71
2024/04/05 00:33:30;;;;;;;6.60;4.43;;;;;;;7.15;84.44;93392.09;5088929;28;20047;-72
2024/04/05 00:35:56;;;;;;;6.13;4.35;;;;;;;7.00;83.60;93358.97;5089579;28;20032;-71
2024/04/05 00:38:24;;;;;;;7.07;4.40;;;;;;;7.27;82.77;93392.41;5089372;28;20031;-71
2024/04/05 00:40:51;;;;;;;10.63;5.65;;;;;;;7.05;83.07;93364.31;5090994;28;20104;-71
2024/04/05 00:43:16;;;;;;;10.43;4.30;;;;;;;7.13;82.35;93382.06;5089991;28;20389;-72
2024/04/05 00:45:46;;;;;;;8.48;4.28;;;;;;;7.21;82.79;93396.47;5096327;28;20048;-71
2024/04/05 00:48:13;;;;;;;8.90;4.50;;;;;;;7.09;82.68;93389.31;5107693;28;20122;-72
2024/04/05 00:50:39;;;;;;;5.55;3.83;;;;;;;6.79;82.82;93345.22;5092329;28;20032;-72
2024/04/05 00:53:06;;;;;;;9.63;3.60;;;;;;;6.82;82.46;93347.44;5089917;28;20500;-72
2024/04/05 00:55:33;;;;;;;4.47;3.00;;;;;;;6.93;82.53;93367.38;5088621;28;20036;-72
2024/04/05 00:58:02;;;;;;;6.03;3.60;;;;;;;6.83;82.60;93361.78;5088827;28;20039;-72
2024/04/05 01:00:28;;;;;;;5.93;3.33;;;;;;;6.94;83.31;93379.16;5091766;28;20035;-72
2024/04/05 01:02:54;;;;;;;7.32;3.60;;;;;;;6.93;83.78;93390.34;5089096;28;20028;-72
2024/04/05 01:05:20;;;;;;;7.18;3.38;;;;;;;6.83;83.73;93382.19;5087883;28;20031;-72
2024/04/05 01:07:48;;;;;;;5.20;3.08;;;;;;;6.60;84.23;93351.72;5088217;28;20102;-72
2024/04/05 01:10:13;;;;;;;4.90;2.70;;;;;;;6.30;85.19;93321.19;5088108;28;20036;-71
2024/04/05 01:12:39;;;;;;;4.10;2.65;;;;;;;6.63;86.02;93392.97;5092777;28;20075;-72
2024/04/05 01:15:05;;;;;;;5.18;2.75;;;;;;;6.50;87.16;93388.56;5093392;28;20532;-71
2024/04/05 01:17:31;;;;;;;5.78;3.45;;;;;;;6.54;87.61;93407.63;5088840;28;20031;-72
2024/04/05 01:19:58;;;;;;;6.45;3.90;;;;;;;6.65;87.66;93400.47;5089912;28;20028;-72
2024/04/05 01:22:30;;;;;;;8.48;4.43;;;;;;;6.53;87.99;93392.50;5094012;28;20032;-72
2024/04/05 01:24:55;;;;;;;5.95;3.85;;;;;;;6.11;89.47;93329.22;5093501;28;20055;-72
2024/04/05 01:27:20;;;;;;;6.68;3.85;;;;;;;6.53;87.97;93400.94;5099823;28;20461;-72
2024/04/05 01:29:46;;;;;;;5.20;3.63;;;;;;;6.63;88.64;93400.63;5098073;28;20499;-71
2024/04/05 01:32:11;;;;;;;6.97;3.58;;;;;;;6.64;88.23;93402.25;5099551;28;20027;-72
2024/04/05 01:34:37;;;;;;;6.72;3.78;;;;;;;6.46;87.91;93371.22;5096805;28;20053;-72
2024/04/05 01:37:02;;;;;;;5.70;3.72;;;;;;;6.52;88.07;93381.50;5097055;28;20067;-72
2024/04/05 01:39:29;;;;;;;4.45;2.97;;;;;;;6.69;86.21;93396.59;5096964;28;20071;-72
2024/04/05 01:41:54;;;;;;;;;;;;;;;6.85;86.25;93399.88;5098587;28;20839;-72
2024/04/05 01:44:20;;;;;;;6.65;3.05;;;;;;;6.58;86.04;93391.97;5097628;28;19920;-72
2024/04/05 01:46:46;;;;;;;5.55;3.05;;;;;;;6.37;85.99;93365.41;5096653;28;20502;-72
2024/04/05 01:49:11;;;;;;;6.10;2.65;;;;;;;6.39;85.57;93371.16;5099334;28;20101;-72
2024/04/05 01:51:38;;;;;;;4.30;2.95;;;;;;;6.27;86.14;93356.31;5097455;28;20441;-72
2024/04/05 01:54:04;;;;;;;6.13;2.70;;;;;;;6.26;85.86;93364.91;5096344;28;20519;-72
2024/04/05 01:56:31;;;;;;;4.97;2.42;;;;;;;6.41;87.33;93384.50;5097451;28;20821;-72
2024/04/05 01:58:57;;;;;;;4.82;2.80;;;;;;;6.15;86.64;93358.53;5099883;28;20054;-72
2024/04/05 02:01:22;;;;;;;5.60;3.10;;;;;;;6.28;89.10;93403.81;5097625;28;20027;-72
2024/04/05 02:03:51;;;;;;;5.97;2.97;;;;;;;6.35;89.09;93406.41;5096650;28;20521;-72
2024/04/05 02:06:17;;;;;;;12.20;8.25;;;;;;;6.06;91.13;93376.66;5097696;28;20104;-72
2024/04/05 02:08:43;;;;;;;7.03;4.10;;;;;;;5.85;92.42;93373.81;5096925;28;20125;-72
2024/04/05 02:11:09;;;;;;;12.30;7.50;;;;;;;5.92;94.33;93412.13;5092243;28;20477;-72
2024/04/05 02:13:34;;;;;;;13.20;8.98;;;;;;;5.17;99.46;93364.44;5087958;28;20034;-72
2024/04/05 02:16:00;;;;;;;10.10;7.50;;;;;;;4.98;100.00;93359.81;5087718;28;20427;-71
2024/04/05 02:18:25;;;;;;;11.10;6.00;;;;;;;5.46;100.00;93415.63;5092337;28;20457;-72
2024/04/05 02:20:56;;;;;;;7.85;3.95;;;;;;;5.05;100.00;93420.06;5087705;28;20071;-71
2024/04/05 02:23:22;;;;;;;8.98;4.32;;;;;;;5.42;100.00;93435.53;5091706;28;20542;-71
2024/04/05 02:25:47;;;;;;;4.78;2.90;;;;;;;5.16;100.00;93428.25;5088072;28;20090;-71
2024/04/05 02:28:12;;;;;;;7.85;3.22;;;;;;;5.46;100.00;93423.25;5086426;28;20055;-72
2024/04/05 02:30:39;;;;;;;5.25;3.10;;;;;;;4.76;100.00;93380.00;5097931;28;20035;-71
2024/04/05 02:33:04;;;;;;;;;;;;;;;5.59;100.00;93430.28;5097564;28;20027;-72
2024/04/05 02:35:30;;;;;;;4.43;3.08;;;;;;;5.02;100.00;93417.88;5097041;28;19912;-72
2024/04/05 02:37:55;;;;;;;5.13;3.50;;;;;;;4.82;100.00;93361.53;5094466;28;20111;-72
2024/04/05 02:40:21;;;;;;;6.45;3.38;;;;;;;5.20;100.00;93389.53;5087559;28;20144;-72
2024/04/05 02:42:46;;;;;;;7.05;3.47;;;;;;;5.30;100.00;93393.59;5087533;28;20398;-72
2024/04/05 02:45:12;;;;;;;6.25;4.85;;;;;;;5.69;100.00;93437.72;5087560;28;20032;-72
2024/04/05 02:47:37;;;;;;;6.88;4.50;;;;;;;5.70;100.00;93429.09;5088272;28;20396;-72
2024/04/05 02:50:03;;;;;;;7.63;4.53;;;;;;;5.64;98.19;93397.44;5087398;28;20853;-72
2024/04/05 02:52:28;;;;;;;7.75;4.28;;;;;;;5.63;98.98;93393.31;5087620;28;20135;-72
2024/04/05 02:54:54;;;;;;;8.90;4.38;;;;;;;5.85;97.63;93426.56;5091692;28;20036;-72
2024/04/05 02:57:19;;;;;;;7.25;4.53;;;;;;;5.70;96.69;93390.88;5087411;28;20035;-72
2024/04/05 02:59:45;;;;;;;5.65;4.22;;;;;;;5.73;96.58;93388.75;5089110;28;20446;-72
2024/04/05 03:02:10;;;;;;;9.00;3.80;;;;;;;5.88;95.55;93409.16;5087168;28;20035;-72
2024/04/05 03:04:36;;;;;;;5.90;3.92;;;;;;;5.34;95.54;93321.00;5095768;28;20048;-72
2024/04/05 03:07:01;;;;;;;6.93;3.55;;;;;;;6.04;93.52;93416.81;5092901;28;20477;-71
2024/04/05 03:09:27;;;;;;;7.63;3.80;;;;;;;6.10;94.58;93428.88;5087466;28;20052;-71
2024/04/05 03:11:53;;;;;;;8.70;3.95;;;;;;;6.06;93.91;93415.69;5087201;28;20530;-71
2024/04/05 03:14:19;;;;;;;7.40;3.55;;;;;;;5.82;94.35;93383.56;5088787;28;20028;-72
2024/04/05 03:16:45;;;;;;;6.38;3.58;;;;;;;6.13;94.38;93436.19;5087303;28;20485;-71
2024/04/05 03:19:10;;;;;;;;;;;;;;;6.21;92.64;93430.19;5088287;28;20051;-72
2024/04/05 03:21:35;;;;;;;7.97;3.45;;;;;;;5.74;93.88;93390.34;5088471;28;20361;-72
2024/04/05 03:24:01;;;;;;;8.10;4.28;;;;;;;5.95;94.64;93427.09;5087858;28;20466;-72
2024/04/05 03:26:26;;;;;;;9.32;5.82;;;;;;;5.98;93.65;93429.28;5087365;28;20421;-72
2024/04/05 03:28:52;;;;;;;9.98;5.60;;;;;;;6.01;94.36;93431.50;5088531;28;20051;-72
2024/04/05 03:31:18;;;;;;;11.80;5.32;;;;;;;5.94;94.15;93432.38;5087394;28;20067;-72
2024/04/05 03:33:44;;;;;;;8.48;4.72;;;;;;;5.98;93.58;93434.38;5087029;28;20031;-72
2024/04/05 03:36:09;;;;;;;7.20;4.32;;;;;;;5.85;93.18;93413.81;5092058;28;20043;-72
2024/04/05 03:38:34;;;;;;;7.45;4.40;;;;;;;5.94;91.97;93429.81;5090495;28;20028;-72
2024/04/05 03:41:04;;;;;;;6.43;3.88;;;;;;;5.95;92.03;93432.19;5094326;28;20059;-72
2024/04/05 03:43:29;;;;;;;8.23;3.42;;;;;;;5.78;91.15;93425.69;5108943;28;20045;-72
2024/04/05 03:45:55;;;;;;;6.47;3.20;;;;;;;5.74;92.33;93420.16;5097875;28;20028;-72
2024/04/05 03:48:20;;;;;;;11.82;4.15;;;;;;;5.51;91.77;93395.47;5090587;28;20051;-72
2024/04/05 03:50:47;;;;;;;10.27;3.83;;;;;;;5.55;92.15;93398.50;5092744;28;20039;-72
2024/04/05 03:53:12;;;;;;;9.15;4.78;;;;;;;5.45;92.81;93388.53;5098520;28;20043;-72
2024/04/05 03:55:38;;;;;;;9.55;4.10;;;;;;;5.41;92.48;93393.19;5090103;28;20027;-72
2024/04/05 03:58:04;;;;;;;8.15;4.38;;;;;;;5.83;92.71;93444.56;5094896;28;20032;-72
2024/04/05 04:00:30;;;;;;;11.20;4.60;;;;;;;5.82;92.90;93447.28;5090576;28;20035;-72
2024/04/05 04:02:55;;;;;;;11.90;5.68;;;;;;;5.46;92.78;93402.88;5091120;28;20085;-72
2024/04/05 04:05:21;;;;;;;9.45;4.82;;;;;;;5.75;92.88;93449.75;5097750;28;20046;-72
2024/04/05 04:07:47;;;;;;;10.20;5.95;;;;;;;5.75;93.15;93450.53;5090338;28;20052;-72
2024/04/05 04:10:13;;;;;;;13.27;5.47;;;;;;;5.51;93.89;93410.00;5090411;28;20042;-72
2024/04/05 04:12:39;;;;;;;13.57;5.07;;;;;;;5.69;93.01;93446.13;5097739;28;20135;-72
2024/04/05 04:15:11;;;;;;;10.07;5.53;;;;;;;5.64;93.43;93433.13;5098080;28;20046;-72
2024/04/05 04:17:37;;;;;;;8.70;4.30;;;;;;;5.77;94.63;93463.13;5097464;28;20123;-72
2024/04/05 04:20:04;;;;;;;;;;;;;;;5.89;94.53;93473.69;5091923;28;20888;-72
2024/04/05 04:22:32;;;;;;;11.90;5.43;;;;;;;5.82;95.10;93477.88;5090968;28;19916;-72
2024/04/05 04:24:57;;;;;;;10.35;4.90;;;;;;;5.68;94.03;93452.19;5095165;28;20425;-72
2024/04/05 04:27:23;;;;;;;11.88;5.57;;;;;;;5.85;96.80;93475.81;5104287;28;20035;-72
2024/04/05 04:29:48;;;;;;;11.95;6.00;;;;;;;5.84;96.50;93476.75;5093045;28;20387;-72
2024/04/05 04:32:15;;;;;;;12.52;5.72;;;;;;;5.67;95.76;93447.28;5091916;28;20564;-72
2024/04/05 04:34:40;;;;;;;11.35;5.88;;;;;;;5.94;95.78;93484.16;5092075;28;20036;-72
2024/04/05 04:37:06;;;;;;;11.13;5.55;;;;;;;6.07;93.92;93481.00;5090739;28;20038;-71
2024/04/05 04:39:31;;;;;;;17.42;7.00;;;;;;;5.83;93.76;93438.69;5090134;28;20046;-71
2024/04/05 04:41:57;;;;;;;14.27;6.30;;;;;;;5.97;92.51;93440.44;5089205;28;20039;-72
2024/04/05 04:44:23;;;;;;;13.15;6.00;;;;;;;6.27;92.21;93483.88;5089682;28;20135;-72
2024/04/05 04:46:48;;;;;;;12.00;5.38;;;;;;;6.36;91.58;93486.31;5091050;28;20040;-72
2024/04/05 04:49:15;;;;;;;17.33;7.60;;;;;;;6.19;91.40;93458.44;5087456;28;20024;-72
2024/04/05 04:51:40;;;;;;;22.70;7.18;;;;;;;6.20;91.80;93464.34;5087985;28;20093;-72
2024/04/05 04:54:06;;;;;;;28.95;8.52;;;;;;;6.38;92.01;93482.63;5087613;28;20024;-72
2024/04/05 04:56:32;;;;;;;19.25;6.72;;;;;;;6.60;92.65;93492.91;5088371;28;20043;-72
2024/04/05 04:58:58;;;;;;;21.70;7.10;;;;;;;6.45;92.00;93459.75;5089077;28;20055;-72
2024/04/05 05:01:24;;;;;;;16.63;6.85;;;;;;;6.62;91.07;93467.97;5086508;28;20063;-72
2024/04/05 05:03:49;;;;;;;12.82;6.43;;;;;;;6.91;91.17;93496.19;5089743;28;20063;-72
2024/04/05 05:06:15;;;;;;;13.45;7.10;;;;;;;6.77;90.82;93467.19;5088820;28;20040;-72
2024/04/05 05:08:40;;;;;;;11.57;6.43;;;;;;;7.18;89.64;93510.03;5088520;28;20044;-72
2024/04/05 05:11:06;;;;;;;12.75;5.43;;;;;;;7.42;88.40;93509.88;5088631;28;20032;-72
2024/04/05 05:13:32;;;;;;;9.55;5.03;;;;;;;7.48;88.51;93493.81;5089074;28;20564;-72
2024/04/05 05:15:57;;;;;;;12.30;5.65;;;;;;;7.66;87.93;93518.16;5104228;28;20035;-72
2024/04/05 05:18:23;;;;;;;14.57;6.00;;;;;;;7.58;86.24;93484.06;5088951;28;20123;-72
2024/04/05 05:20:51;;;;;;;10.70;4.88;;;;;;;7.91;85.66;93507.53;5088569;28;20055;-72
2024/04/05 05:23:17;;;;;;;10.77;5.55;;;;;;;7.87;84.19;93490.00;5089284;28;20046;-72
2024/04/05 05:25:44;;;;;;;9.05;4.63;;;;;;;8.28;82.39;93526.06;5089078;28;21016;-72
2024/04/05 05:28:11;;;;;;;7.60;4.85;;;;;;;8.33;82.59;93513.50;5090661;28;20044;-72
2024/04/05 05:30:37;;;;;;;8.90;4.85;;;;;;;8.39;82.85;93520.44;5094885;28;20024;-73
2024/04/05 05:33:04;;;;;;;8.88;4.13;;;;;;;8.44;82.88;93512.22;5088062;28;20039;-73
2024/04/05 05:35:30;;;;;;;7.50;3.95;;;;;;;8.49;81.77;93525.25;5091490;28;20159;-73
2024/04/05 05:38:14;;;;;;;;;;;;;;;8.72;81.37;93531.09;5093427;28;20038;-73
2024/04/05 05:40:39;;;;;;;8.20;4.05;;;;;;;8.48;82.98;93504.94;5094652;28;20369;-72
2024/04/05 05:43:05;;;;;;;13.98;5.40;;;;;;;8.65;83.27;93505.44;5099981;28;20068;-72
2024/04/05 05:45:30;;;;;;;14.20;5.25;;;;;;;8.80;82.47;93503.53;5088037;28;20028;-72
2024/04/05 05:47:56;;;;;;;12.18;6.53;;;;;;;9.21;81.38;93531.84;5088237;28;20053;-72
2024/04/05 05:50:24;;;;;;;18.52;6.65;;;;;;;9.30;82.16;93512.75;5094485;28;20105;-72
2024/04/05 05:52:49;;;;;;;12.35;6.20;;;;;;;9.45;81.03;93488.72;5087746;28;20533;-72
2024/04/05 05:55:15;;;;;;;15.52;6.45;;;;;;;10.04;79.55;93550.53;5089711;28;20038;-72
2024/04/05 05:57:41;;;;;;;14.23;6.78;;;;;;;10.29;77.92;93553.28;5087349;28;20044;-72
2024/04/05 06:00:09;;;;;;;19.00;7.30;;;;;;;10.61;76.94;93546.75;5089292;28;20047;-72
2024/04/05 06:02:39;;;;;;;49.92;21.95;;;;;;;10.75;74.81;93548.31;5088528;28;20191;-72
2024/04/05 06:05:06;;;;;;;18.00;7.90;;;;;;;11.16;75.70;93533.50;5087564;28;20035;-72
2024/04/05 06:07:32;;;;;;;11.18;5.40;;;;;;;11.67;73.52;93543.16;5087192;28;20382;-72
2024/04/05 06:09:59;;;;;;;16.23;5.75;;;;;;;11.79;71.03;93517.53;5088757;28;20106;-72
2024/04/05 06:12:25;;;;;;;9.00;4.25;;;;;;;12.28;69.34;93549.44;5090243;28;20492;-72
2024/04/05 06:14:58;;;;;;;21.25;6.53;;;;;;;12.40;67.00;93525.56;5090070;28;20047;-72
2024/04/05 06:17:27;;;;;;;18.30;5.25;;;;;;;12.72;65.54;93546.06;5091734;28;20024;-72
2024/04/05 06:19:56;;;;;;;10.65;3.10;;;;;;;12.71;66.22;93518.72;5088731;28;20253;-72
2024/04/05 06:22:24;;;;;;;8.85;3.67;;;;;;;13.02;64.84;93545.38;5087384;28;20040;-72
2024/04/05 06:24:51;;;;;;;9.77;3.97;;;;;;;13.26;64.80;93555.78;5085422;28;20126;-72
2024/04/05 06:27:17;;;;;;;11.70;4.35;;;;;;;13.08;64.40;93502.44;5088978;28;20397;-72
2024/04/05 06:29:50;;;;;;;10.27;3.53;;;;;;;13.62;63.73;93549.00;5084508;28;20443;-72
2024/04/05 06:32:16;;;;;;;13.98;4.28;;;;;;;13.64;63.68;93520.38;5095072;28;20034;-72
2024/04/05 06:34:43;;;;;;;6.78;3.15;;;;;;;13.92;62.08;93520.81;5086906;28;20039;-72
2024/04/05 06:37:09;;;;;;;8.70;4.15;;;;;;;14.38;61.52;93560.59;5095303;28;20035;-72
2024/04/05 06:39:34;;;;;;;9.75;3.58;;;;;;;14.59;61.13;93544.75;5091180;28;20032;-72
2024/04/05 06:42:00;;;;;;;7.88;3.95;;;;;;;14.60;60.00;93510.13;5096920;28;20035;-72
2024/04/05 06:44:27;;;;;;;9.65;4.47;;;;;;;15.18;59.18;93556.84;5097810;28;20043;-72
2024/04/05 06:46:53;;;;;;;8.45;4.07;;;;;;;15.47;57.67;93560.19;5087079;28;20036;-72
2024/04/05 06:49:18;;;;;;;7.90;3.03;;;;;;;15.55;55.71;93542.75;5090698;28;20347;-72
2024/04/05 06:51:43;;;;;;;8.75;3.88;;;;;;;15.82;55.19;93548.13;5086827;28;20378;-72
2024/04/05 06:54:09;;;;;;;7.28;3.72;;;;;;;16.29;54.30;93579.97;5087212;28;20032;-72
2024/04/05 06:56:34;;;;;;;7.35;3.58;;;;;;;16.35;54.57;93584.25;5089438;28;20130;-72
2024/04/05 06:59:00;;;;;;;7.45;3.83;;;;;;;16.27;53.92;93549.13;5088241;28;20043;-72
2024/04/05 07:01:25;;;;;;;7.78;3.40;;;;;;;15.94;52.13;93524.78;5104113;28;20040;-72
2024/04/05 07:03:51;;;;;;;10.20;3.05;;;;;;;16.63;52.53;93579.19;5093453;28;20031;-72
2024/04/05 07:06:16;;;;;;;10.32;4.55;;;;;;;16.52;50.27;93566.06;5090690;28;20089;-72
2024/04/05 07:08:42;;;;;;;13.27;5.45;;;;;;;16.77;49.87;93587.41;5089042;28;20475;-72
2024/04/05 07:11:09;;;;;;;9.77;4.05;;;;;;;16.98;52.13;93562.50;5095043;28;20123;-72
2024/04/05 07:13:35;;;;;;;12.55;5.30;;;;;;;17.42;49.70;93587.72;5090223;28;20435;-72
2024/04/05 07:16:00;;;;;;;;;;;;;;;17.81;50.35;93579.00;5091201;28;20032;-72
2024/04/05 07:18:26;;;;;;;11.32;5.63;;;;;;;17.78;48.55;93553.53;5096845;28;19965;-72
2024/04/05 07:20:54;;;;;;;14.18;6.00;;;;;;;17.99;47.58;93564.09;5090169;28;20043;-72
2024/04/05 07:23:20;;;;;;;16.55;5.70;;;;;;;18.28;47.82;93558.63;5092575;28;20040;-72
2024/04/05 07:25:46;;;;;;;14.88;6.88;;;;;;;18.10;46.50;93516.38;5090167;28;20489;-72
2024/04/05 07:28:11;;;;;;;8.18;4.38;;;;;;;18.88;47.48;93586.34;5092745;28;20074;-72
2024/04/05 07:30:38;;;;;;;9.20;3.58;;;;;;;19.01;47.58;93557.25;5094300;28;20042;-72
2024/04/05 07:33:04;;;;;;;5.85;3.28;;;;;;;19.09;44.79;93574.25;5097435;28;20036;-72
2024/04/05 07:35:30;;;;;;;4.00;2.00;;;;;;;19.40;45.57;93584.78;5098797;28;20032;-72
2024/04/05 07:37:56;;;;;;;;;;;;;;;18.73;43.39;93589.63;5092132;28;20062;-72
2024/04/05 07:40:23;;;;;;;8.68;3.25;;;;;;;18.24;45.01;93575.78;5092250;28;19916;-72
2024/04/05 07:42:52;;;;;;;8.93;4.10;;;;;;;18.60;46.05;93552.59;5094095;28;20075;-72
2024/04/05 07:45:19;;;;;;;9.85;4.70;;;;;;;18.75;45.02;93532.94;5091258;28;20055;-72
2024/04/05 07:47:48;;;;;;;12.75;4.97;;;;;;;19.13;43.82;93587.53;5088957;28;20032;-72
2024/04/05 07:50:16;;;;;;;8.93;4.50;;;;;;;19.65;44.68;93590.31;5095331;28;20032;-73
2024/04/05 07:52:42;;;;;;;15.18;4.50;;;;;;;19.42;44.63;93508.97;5092289;28;20032;-73
2024/04/05 07:55:09;;;;;;;17.02;5.50;;;;;;;20.03;43.47;93570.06;5101876;28;20496;-72
2024/04/05 07:57:37;;;;;;;14.85;2.88;;;;;;;18.77;43.60;93588.09;5094213;28;20486;-72
2024/04/05 08:00:05;;;;;;;9.40;2.55;;;;;;;18.22;45.25;93503.22;5097205;28;20545;-72
2024/04/05 08:02:31;;;;;;;9.38;2.83;;;;;;;19.13;45.94;93546.66;5077862;28;20127;-72
2024/04/05 08:04:58;;;;;;;8.63;2.17;;;;;;;19.83;44.08;93576.81;5092111;28;20036;-72
2024/04/05 08:07:24;;;;;;;8.57;1.52;;;;;;;20.12;42.35;93571.13;5096807;28;20028;-72
2024/04/05 08:09:53;;;;;;;12.00;3.58;;;;;;;19.41;42.90;93536.84;5092502;28;20085;-72
2024/04/05 08:12:19;;;;;;;8.50;3.22;;;;;;;19.83;44.67;93578.63;5095074;28;20061;-72
2024/04/05 08:14:45;;;;;;;10.93;3.03;;;;;;;20.24;42.32;93572.69;5091948;28;20032;-72
2024/04/05 08:17:14;;;;;;;12.40;2.50;;;;;;;20.19;40.55;93557.03;5090309;28;20035;-72
2024/04/05 08:19:40;;;;;;;9.60;3.13;;;;;;;20.14;40.02;93578.69;5095036;28;20082;-72
2024/04/05 08:22:06;;;;;;;12.68;3.33;;;;;;;19.71;42.48;93568.44;5092310;28;20114;-71
2024/04/05 08:24:33;;;;;;;10.35;2.00;;;;;;;19.92;43.13;93594.53;5091210;28;20058;-72
2024/04/05 08:26:59;;;;;;;9.60;2.20;;;;;;;20.06;41.77;93550.53;5091084;28;20596;-72
2024/04/05 08:29:25;;;;;;;10.32;1.83;;;;;;;20.67;41.67;93583.63;5090983;28;21010;-72
2024/04/05 08:31:52;;;;;;;6.68;1.63;;;;;;;21.11;41.48;93589.31;5090584;28;20382;-72
2024/04/05 08:34:19;;;;;;;5.35;1.90;;;;;;;21.25;41.28;93552.16;5090809;28;20385;-72
2024/04/05 08:36:49;;;;;;;9.35;2.60;;;;;;;21.61;40.88;93547.53;5091153;28;20486;-72
2024/04/05 08:39:17;;;;;;;8.45;1.67;;;;;;;21.96;40.17;93544.19;5093131;28;20501;-72
2024/04/05 08:41:44;;;;;;;8.43;1.30;;;;;;;22.12;39.05;93545.66;5091464;28;20035;-73
2024/04/05 08:44:12;;;;;;;3.15;0.88;;;;;;;21.76;37.05;93545.91;5092955;28;20035;-72
2024/04/05 08:46:39;;;;;;;2.55;0.90;;;;;;;21.94;39.08;93536.63;5089705;28;20173;-72
2024/04/05 08:49:05;;;;;;;7.43;1.55;;;;;;;21.48;38.92;93579.50;5088930;28;20043;-72
2024/04/05 08:51:35;;;;;;;3.22;0.75;;;;;;;20.89;38.69;93538.19;5089915;28;20132;-72
2024/04/05 08:54:02;;;;;;;3.67;1.42;;;;;;;21.32;39.98;93568.31;5090266;28;20088;-72
2024/04/05 08:56:31;;;;;;;5.68;1.10;;;;;;;21.05;38.10;93570.25;5094375;28;20496;-72
2024/04/05 08:59:01;;;;;;;4.40;2.00;;;;;;;21.28;40.37;93559.47;5091421;28;20461;-72
2024/04/05 09:01:27;;;;;;;4.22;1.27;;;;;;;21.49;38.90;93571.38;5088626;28;20271;-72
2024/04/05 09:03:53;;;;;;;;;;;;;;;21.25;39.34;93566.00;5089627;28;20580;-72
2024/04/05 09:06:19;;;;;;;2.97;0.90;;;;;;;19.90;40.30;93561.69;5089196;28;20281;-72
2024/04/05 09:08:44;;;;;;;;;;;;;;;20.26;40.80;93573.22;5087711;28;20048;-72
2024/04/05 09:11:16;;;;;;;2.67;0.90;;;;;;;20.95;40.21;93562.44;5089026;28;19974;-72
2024/04/05 09:13:41;;;;;;;5.05;1.33;;;;;;;20.96;40.03;93532.66;5088906;28;20039;-72
2024/04/05 09:16:07;;;;;;;5.82;1.10;;;;;;;21.09;38.37;93563.44;5089137;28;20064;-72
2024/04/05 09:18:32;;;;;;;3.05;0.80;;;;;;;20.23;38.53;93578.97;5089748;28;20044;-72
2024/04/05 09:20:58;;;;;;;2.53;0.75;;;;;;;20.62;38.62;93567.19;5089516;28;20477;-72
2024/04/05 09:23:23;;;;;;;;;;;;;;;21.19;38.88;93564.44;5090414;28;20091;-72
2024/04/05 09:26:01;;;;;;;;;;;;;;;21.48;39.37;93567.19;5090823;28;19994;-72
2024/04/05 09:28:29;;;;;;;5.55;2.42;;;;;;;22.08;38.69;93562.94;5089995;28;19927;-72
2024/04/05 09:30:59;;;;;;;2.25;0.80;;;;;;;21.70;37.13;93536.50;5089984;28;20048;-72
2024/04/05 09:33:25;;;;;;;2.03;0.70;;;;;;;22.07;36.37;93535.22;5089594;28;20115;-72
2024/04/05 09:35:52;;;;;;;;;;;;;;;22.22;38.42;93567.56;5091562;28;20457;-72
2024/04/05 09:38:19;;;;;;;1.90;0.43;;;;;;;22.08;35.82;93528.16;5090100;28;20016;-72
2024/04/05 09:40:47;;;;;;;2.53;0.50;;;;;;;21.35;38.93;93559.94;5091421;28;20032;-72
2024/04/05 09:43:15;;;;;;;1.35;0.65;;;;;;;21.02;39.49;93536.81;5091798;28;20150;-72
2024/04/05 09:45:42;;;;;;;3.35;0.70;;;;;;;21.66;40.40;93525.78;5090505;28;20460;-72
2024/04/05 09:48:11;;;;;;;4.18;1.15;;;;;;;22.23;38.61;93546.38;5089371;28;20031;-72
2024/04/05 09:50:38;;;;;;;2.08;0.65;;;;;;;22.25;36.38;93569.63;5089624;28;20523;-72
2024/04/05 09:53:04;;;;;;;5.78;0.77;;;;;;;22.56;37.65;93556.31;5094133;28;20385;-72
2024/04/05 09:55:34;;;;;;;;;;;;;;;22.29;37.00;93560.16;5092273;28;20036;-72
2024/04/05 09:58:00;;;;;;;2.50;0.80;;;;;;;21.84;36.82;93566.25;5093460;28;19974;-72
2024/04/05 10:00:27;;;;;;;;;;;;;;;21.51;39.22;93568.50;5089310;28;20043;-72
2024/04/05 10:02:57;;;;;;;1.63;0.60;;;;;;;21.68;36.10;93562.91;5091787;28;20013;-72
2024/04/05 10:05:28;;;;;;;1.35;0.57;;;;;;;21.43;37.39;93535.09;5089158;28;20067;-72
2024/04/05 10:07:55;;;;;;;5.60;0.55;;;;;;;21.97;40.32;93545.75;5094137;28;20150;-72
2024/04/05 10:10:33;;;;;;;2.55;0.43;;;;;;;22.50;37.30;93546.91;5091236;28;20038;-72
2024/04/05 10:13:17;;;;;;;1.20;0.40;;;;;;;22.71;35.52;93552.75;5094060;28;20151;-72
2024/04/05 10:15:54;;;;;;;1.55;0.65;;;;;;;22.53;37.17;93546.38;5091401;28;20075;-72
2024/04/05 10:18:30;;;;;;;1.15;0.40;;;;;;;21.95;35.57;93525.13;5098887;28;20184;-72
2024/04/05 10:21:03;;;;;;;0.70;0.20;;;;;;;21.03;34.85;93543.63;5096528;28;20055;-72
2024/04/05 10:23:29;;;;;;;1.52;0.45;;;;;;;20.89;35.53;93514.69;5089032;28;20028;-72
2024/04/05 10:25:56;;;;;;;;;;;;;;;21.45;37.92;93541.63;5089259;28;20035;-72
2024/04/05 10:28:21;;;;;;;5.20;0.52;;;;;;;21.51;35.78;93531.91;5090277;28;19955;-72
2024/04/05 10:30:47;;;;;;;;;;;;;;;21.11;36.28;93546.72;5087947;28;20086;-72
2024/04/05 10:33:21;;;;;;;;;;;;;;;20.95;35.70;93541.56;5090463;28;20882;-72
2024/04/05 10:35:48;;;;;;;6.65;0.70;;;;;;;20.10;37.49;93444.66;5089757;28;19923;-72
2024/04/05 10:38:16;;;;;;;1.90;0.60;;;;;;;20.92;36.63;93534.25;5090020;28;20101;-72
2024/04/05 10:40:55;;;;;;;2.22;0.50;;;;;;;21.16;36.33;93526.56;5092460;28;20043;-72
2024/04/05 10:43:20;;;;;;;0.68;0.30;;;;;;;21.16;34.25;93528.44;5093487;28;20055;-72
2024/04/05 10:45:50;;;;;;;;;;;;;;;21.99;35.07;93531.34;5093445;28;20031;-72
2024/04/05 10:48:16;;;;;;;3.13;0.63;;;;;;;22.47;37.16;93534.38;5093705;28;19916;-72
2024/04/05 10:50:41;;;;;;;;;;;;;;;23.14;35.03;93528.44;5093712;28;20405;-72
2024/04/05 10:53:07;;;;;;;2.33;0.43;;;;;;;23.13;33.08;93499.94;5092998;28;19947;-72
2024/04/05 10:55:33;;;;;;;2.33;0.60;;;;;;;23.58;33.68;93505.63;5090359;28;20040;-72
2024/04/05 10:58:02;;;;;;;;;;;;;;;23.36;31.97;93516.69;5096280;28;20032;-73
2024/04/05 11:00:30;;;;;;;0.90;0.25;;;;;;;22.91;32.66;93488.13;5092272;28;19915;-73
2024/04/05 11:02:56;;;;;;;2.50;0.68;;;;;;;20.80;34.37;93475.28;5095781;28;20486;-72
2024/04/05 11:05:21;;;;;;;;;;;;;;;21.08;35.56;93511.47;5092776;28;20119;-72
2024/04/05 11:07:59;;;;;;;3.35;1.48;;;;;;;20.84;35.51;93496.41;5091276;28;20072;-72
2024/04/05 11:10:36;;;;;;;1.77;0.60;;;;;;;20.67;34.76;93488.88;5090962;28;20035;-72
2024/04/05 11:13:16;;;;;;;3.05;0.43;;;;;;;20.61;34.63;93474.28;5091348;28;20075;-72
2024/04/05 11:15:45;;;;;;;2.35;0.70;;;;;;;21.06;35.72;93490.06;5090275;28;20059;-72
2024/04/05 11:18:14;;;;;;;4.40;1.40;;;;;;;21.38;35.35;93514.97;5090794;28;20424;-72
2024/04/05 11:20:40;;;;;;;3.28;0.60;;;;;;;21.68;35.41;93500.19;5092822;28;20456;-72
2024/04/05 11:23:13;;;;;;;1.55;0.50;;;;;;;22.14;35.19;93469.50;5093488;28;20602;-72
2024/04/05 11:25:38;;;;;;;1.80;0.50;;;;;;;22.81;34.34;93457.59;5091284;28;20038;-72
2024/04/05 11:28:11;;;;;;;;;;;;;;;23.10;32.93;93506.50;5091926;28;20028;-72
2024/04/05 11:30:42;;;;;;;1.02;0.40;;;;;;;22.27;32.47;93473.31;5094206;28;19916;-72
2024/04/05 11:33:08;;;;;;;3.60;0.50;;;;;;;21.78;32.21;93499.34;5096015;28;20119;-72
2024/04/05 11:35:34;;;;;;;;;;;;;;;21.67;33.89;93503.84;5091225;28;20624;-72
2024/04/05 11:37:59;;;;;;;6.60;0.60;;;;;;;21.41;34.04;93492.75;5089972;28;19919;-72
2024/04/05 11:40:25;;;;;;;;;;;;;;;21.20;33.70;93500.72;5089714;28;20043;-72